sensor_id;sensor_type;location;lat;lon;timestamp;pressure;altitude;pressure_sealevel;temperature;humidity
74834;BME280;63361;52.384;20.930;2023-07-29T00:01:41;99858.03;;;13.37;100.00
74834;BME280;63361;52.384;20.930;2023-07-29T00:04:07;99852.19;;;13.21;100.00
74834;BME280;63361;52.384;20.930;2023-07-29T00:06:34;99851.34;;;13.12;100.00
74834;BME280;63361;52.384;20.930;2023-07-29T00:08:59;99855.16;;;13.11;100.00
74834;BME280;63361;52.384;20.930;2023-07-29T00:11:24;99856.34;;;12.96;100.00
74834;BME280;63361;52.384;20.930;2023-07-29T00:13:50;99859.78;;;12.88;100.00
74834;BME280;63361;52.384;20.930;2023-07-29T00:16:16;99878.13;;;12.91;100.00
74834;BME280;63361;52.384;20.930;2023-07-29T00:18:43;99870.25;;;12.81;100.00
74834;BME280;63361;52.384;20.930;2023-07-29T00:21:08;99876.47;;;12.82;100.00
74834;BME280;63361;52.384;20.930;2023-07-29T00:23:33;99880.28;;;12.81;100.00
74834;BME280;63361;52.384;20.930;2023-07-29T00:25:59;99843.69;;;12.47;100.00
74834;BME280;63361;52.384;20.930;2023-07-29T00:28:24;99877.94;;;12.65;100.00
74834;BME280;63361;52.384;20.930;2023-07-29T00:30:50;99879.03;;;12.64;100.00
74834;BME280;63361;52.384;20.930;2023-07-29T00:33:16;99883.16;;;12.84;100.00
74834;BME280;63361;52.384;20.930;2023-07-29T00:35:41;99884.59;;;12.82;100.00
74834;BME280;63361;52.384;20.930;2023-07-29T00:38:06;99870.41;;;12.62;100.00
74834;BME280;63361;52.384;20.930;2023-07-29T00:40:35;99874.47;;;12.51;100.00
74834;BME280;63361;52.384;20.930;2023-07-29T00:43:01;99876.78;;;12.44;100.00
74834;BME280;63361;52.384;20.930;2023-07-29T00:45:26;99872.47;;;12.43;100.00
74834;BME280;63361;52.384;20.930;2023-07-29T00:47:53;99878.19;;;12.42;100.00
74834;BME280;63361;52.384;20.930;2023-07-29T00:50:19;99872.78;;;12.42;100.00
74834;BME280;63361;52.384;20.930;2023-07-29T00:52:45;99884.22;;;12.39;100.00
74834;BME280;63361;52.384;20.930;2023-07-29T00:55:10;99881.34;;;12.35;100.00
74834;BME280;63361;52.384;20.930;2023-07-29T00:57:36;99869.88;;;12.38;100.00
74834;BME280;63361;52.384;20.930;2023-07-29T01:00:02;99872.91;;;12.37;100.00
74834;BME280;63361;52.384;20.930;2023-07-29T01:02:28;99884.53;;;12.37;100.00
74834;BME280;63361;52.384;20.930;2023-07-29T01:04:55;99889.03;;;12.42;100.00
74834;BME280;63361;52.384;20.930;2023-07-29T01:07:46;99885.94;;;12.35;100.00
74834;BME280;63361;52.384;20.930;2023-07-29T01:15:48;99889.28;;;12.54;100.00
74834;BME280;63361;52.384;20.930;2023-07-29T01:18:27;99893.91;;;12.53;100.00
74834;BME280;63361;52.384;20.930;2023-07-29T01:20:54;99900.53;;;12.47;100.00
74834;BME280;63361;52.384;20.930;2023-07-29T01:23:29;99888.34;;;12.36;100.00
74834;BME280;63361;52.384;20.930;2023-07-29T01:25:54;99887.53;;;12.36;100.00
74834;BME280;63361;52.384;20.930;2023-07-29T01:28:20;99895.44;;;12.46;100.00
74834;BME280;63361;52.384;20.930;2023-07-29T01:30:49;99906.75;;;12.48;100.00
74834;BME280;63361;52.384;20.930;2023-07-29T01:33:22;99908.47;;;12.44;100.00
74834;BME280;63361;52.384;20.930;2023-07-29T01:38:21;99898.16;;;12.32;100.00
74834;BME280;63361;52.384;20.930;2023-07-29T01:40:50;99908.75;;;12.42;100.00
74834;BME280;63361;52.384;20.930;2023-07-29T01:43:16;99906.97;;;12.38;100.00
74834;BME280;63361;52.384;20.930;2023-07-29T01:45:43;99902.56;;;12.42;100.00
74834;BME280;63361;52.384;20.930;2023-07-29T01:48:09;99910.13;;;12.53;100.00
74834;BME280;63361;52.384;20.930;2023-07-29T01:50:34;99909.34;;;12.53;100.00
74834;BME280;63361;52.384;20.930;2023-07-29T01:53:00;99905.97;;;12.47;100.00
74834;BME280;63361;52.384;20.930;2023-07-29T01:55:25;99895.22;;;12.42;100.00
74834;BME280;63361;52.384;20.930;2023-07-29T01:57:51;99905.25;;;12.42;100.00
74834;BME280;63361;52.384;20.930;2023-07-29T02:00:18;99921.50;;;12.42;100.00
74834;BME280;63361;52.384;20.930;2023-07-29T02:02:43;99919.22;;;12.35;100.00
74834;BME280;63361;52.384;20.930;2023-07-29T02:05:08;99914.00;;;12.25;100.00
74834;BME280;63361;52.384;20.930;2023-07-29T02:07:34;99922.63;;;12.27;100.00
74834;BME280;63361;52.384;20.930;2023-07-29T02:09:59;99915.63;;;12.12;100.00
74834;BME280;63361;52.384;20.930;2023-07-29T02:12:25;99904.81;;;12.12;100.00
74834;BME280;63361;52.384;20.930;2023-07-29T02:14:50;99933.88;;;12.20;100.00
74834;BME280;63361;52.384;20.930;2023-07-29T02:17:15;99925.75;;;12.07;100.00
74834;BME280;63361;52.384;20.930;2023-07-29T02:19:41;99929.06;;;12.04;100.00
74834;BME280;63361;52.384;20.930;2023-07-29T02:22:06;99921.47;;;12.06;100.00
74834;BME280;63361;52.384;20.930;2023-07-29T02:24:31;99926.44;;;12.12;100.00
74834;BME280;63361;52.384;20.930;2023-07-29T02:26:57;99943.59;;;12.21;100.00
74834;BME280;63361;52.384;20.930;2023-07-29T02:29:22;99930.75;;;12.13;100.00
74834;BME280;63361;52.384;20.930;2023-07-29T02:31:47;99948.38;;;12.24;100.00
74834;BME280;63361;52.384;20.930;2023-07-29T02:34:13;99943.47;;;12.26;100.00
74834;BME280;63361;52.384;20.930;2023-07-29T02:36:38;99941.19;;;12.33;100.00
74834;BME280;63361;52.384;20.930;2023-07-29T02:39:04;99938.47;;;12.33;100.00
74834;BME280;63361;52.384;20.930;2023-07-29T02:41:30;99946.16;;;12.40;100.00
74834;BME280;63361;52.384;20.930;2023-07-29T02:43:55;99934.66;;;12.35;100.00
74834;BME280;63361;52.384;20.930;2023-07-29T02:46:20;99935.75;;;12.33;100.00
74834;BME280;63361;52.384;20.930;2023-07-29T02:48:46;99940.16;;;12.29;100.00
74834;BME280;63361;52.384;20.930;2023-07-29T02:51:11;99941.28;;;12.28;100.00
74834;BME280;63361;52.384;20.930;2023-07-29T02:53:36;99939.75;;;12.22;100.00
74834;BME280;63361;52.384;20.930;2023-07-29T02:56:03;99956.09;;;12.31;100.00
74834;BME280;63361;52.384;20.930;2023-07-29T02:58:28;99953.19;;;12.27;100.00
74834;BME280;63361;52.384;20.930;2023-07-29T03:01:00;99945.88;;;12.28;100.00
74834;BME280;63361;52.384;20.930;2023-07-29T03:03:26;99953.41;;;12.31;100.00
74834;BME280;63361;52.384;20.930;2023-07-29T03:06:00;99948.78;;;12.31;100.00
74834;BME280;63361;52.384;20.930;2023-07-29T03:08:26;99959.91;;;12.44;100.00
74834;BME280;63361;52.384;20.930;2023-07-29T03:10:51;99967.13;;;12.48;100.00
74834;BME280;63361;52.384;20.930;2023-07-29T03:13:17;99952.78;;;12.48;100.00
74834;BME280;63361;52.384;20.930;2023-07-29T03:15:42;99952.25;;;12.59;100.00
74834;BME280;63361;52.384;20.930;2023-07-29T03:18:07;99954.56;;;12.66;100.00
74834;BME280;63361;52.384;20.930;2023-07-29T03:20:32;99955.63;;;12.79;100.00
74834;BME280;63361;52.384;20.930;2023-07-29T03:22:58;99948.81;;;12.81;100.00
74834;BME280;63361;52.384;20.930;2023-07-29T03:25:23;99965.66;;;13.00;100.00
74834;BME280;63361;52.384;20.930;2023-07-29T03:27:48;99971.38;;;13.13;100.00
74834;BME280;63361;52.384;20.930;2023-07-29T03:30:14;99975.34;;;13.29;100.00
74834;BME280;63361;52.384;20.930;2023-07-29T03:32:43;99971.59;;;13.38;100.00
74834;BME280;63361;52.384;20.930;2023-07-29T03:35:10;99975.75;;;13.45;100.00
74834;BME280;63361;52.384;20.930;2023-07-29T03:37:36;99979.06;;;13.64;100.00
74834;BME280;63361;52.384;20.930;2023-07-29T03:40:01;99977.88;;;13.79;100.00
74834;BME280;63361;52.384;20.930;2023-07-29T03:42:28;99963.00;;;13.76;100.00
74834;BME280;63361;52.384;20.930;2023-07-29T03:44:53;99967.50;;;13.81;100.00
74834;BME280;63361;52.384;20.930;2023-07-29T03:47:18;99969.59;;;13.84;100.00
74834;BME280;63361;52.384;20.930;2023-07-29T03:49:44;99995.84;;;13.97;100.00
74834;BME280;63361;52.384;20.930;2023-07-29T03:52:09;99983.88;;;13.98;100.00
74834;BME280;63361;52.384;20.930;2023-07-29T03:54:35;99997.84;;;14.22;100.00
74834;BME280;63361;52.384;20.930;2023-07-29T03:57:00;99997.91;;;14.31;100.00
74834;BME280;63361;52.384;20.930;2023-07-29T03:59:25;99988.78;;;14.27;100.00
74834;BME280;63361;52.384;20.930;2023-07-29T04:01:51;100005.16;;;14.44;100.00
74834;BME280;63361;52.384;20.930;2023-07-29T04:04:16;99994.31;;;14.53;100.00
74834;BME280;63361;52.384;20.930;2023-07-29T04:06:41;99996.88;;;14.58;100.00
74834;BME280;63361;52.384;20.930;2023-07-29T04:09:07;99999.16;;;14.73;100.00
74834;BME280;63361;52.384;20.930;2023-07-29T04:11:33;100003.19;;;14.93;100.00
74834;BME280;63361;52.384;20.930;2023-07-29T04:13:58;100021.91;;;15.11;100.00
74834;BME280;63361;52.384;20.930;2023-07-29T04:16:24;100021.56;;;15.13;100.00
74834;BME280;63361;52.384;20.930;2023-07-29T04:18:49;100014.88;;;15.36;100.00
74834;BME280;63361;52.384;20.930;2023-07-29T04:21:14;100023.66;;;15.42;100.00
74834;BME280;63361;52.384;20.930;2023-07-29T04:23:39;100013.28;;;15.27;100.00
74834;BME280;63361;52.384;20.930;2023-07-29T04:26:05;100015.34;;;15.38;100.00
74834;BME280;63361;52.384;20.930;2023-07-29T04:28:30;100017.44;;;15.41;100.00
74834;BME280;63361;52.384;20.930;2023-07-29T04:30:56;100016.31;;;15.17;100.00
74834;BME280;63361;52.384;20.930;2023-07-29T04:33:21;100027.66;;;15.36;100.00
74834;BME280;63361;52.384;20.930;2023-07-29T04:35:46;100037.75;;;15.61;100.00
74834;BME280;63361;52.384;20.930;2023-07-29T04:38:12;100035.19;;;15.73;100.00
74834;BME280;63361;52.384;20.930;2023-07-29T04:40:37;100037.44;;;15.63;100.00
74834;BME280;63361;52.384;20.930;2023-07-29T04:43:02;100031.66;;;15.64;100.00
74834;BME280;63361;52.384;20.930;2023-07-29T04:45:29;100048.38;;;16.18;100.00
74834;BME280;63361;52.384;20.930;2023-07-29T04:47:55;100042.81;;;16.44;100.00
74834;BME280;63361;52.384;20.930;2023-07-29T04:50:20;100040.69;;;16.49;100.00
74834;BME280;63361;52.384;20.930;2023-07-29T04:52:45;100031.91;;;16.44;100.00
74834;BME280;63361;52.384;20.930;2023-07-29T04:55:10;100057.59;;;16.72;100.00
74834;BME280;63361;52.384;20.930;2023-07-29T04:57:36;100062.53;;;16.79;100.00
74834;BME280;63361;52.384;20.930;2023-07-29T05:00:02;100058.63;;;16.88;100.00
74834;BME280;63361;52.384;20.930;2023-07-29T05:02:28;100051.38;;;16.93;100.00
74834;BME280;63361;52.384;20.930;2023-07-29T05:04:53;100055.53;;;16.69;100.00
74834;BME280;63361;52.384;20.930;2023-07-29T05:07:18;100051.88;;;16.57;100.00
74834;BME280;63361;52.384;20.930;2023-07-29T05:09:44;100061.25;;;16.76;100.00
74834;BME280;63361;52.384;20.930;2023-07-29T05:12:09;100060.13;;;17.07;100.00
74834;BME280;63361;52.384;20.930;2023-07-29T05:14:34;100055.94;;;17.09;100.00
74834;BME280;63361;52.384;20.930;2023-07-29T05:17:00;100059.97;;;17.45;100.00
74834;BME280;63361;52.384;20.930;2023-07-29T05:19:26;100057.75;;;17.59;100.00
74834;BME280;63361;52.384;20.930;2023-07-29T05:21:51;100077.38;;;17.40;100.00
74834;BME280;63361;52.384;20.930;2023-07-29T05:24:16;100072.91;;;17.56;100.00
74834;BME280;63361;52.384;20.930;2023-07-29T05:26:42;100065.50;;;17.78;100.00
74834;BME280;63361;52.384;20.930;2023-07-29T05:29:07;100071.88;;;18.15;100.00
74834;BME280;63361;52.384;20.930;2023-07-29T05:31:32;100068.31;;;18.59;100.00
74834;BME280;63361;52.384;20.930;2023-07-29T05:33:58;100065.38;;;19.17;100.00
74834;BME280;63361;52.384;20.930;2023-07-29T05:36:24;100072.50;;;19.86;100.00
74834;BME280;63361;52.384;20.930;2023-07-29T05:38:50;100081.16;;;20.03;100.00
74834;BME280;63361;52.384;20.930;2023-07-29T05:41:16;100073.63;;;19.85;100.00
74834;BME280;63361;52.384;20.930;2023-07-29T05:43:42;100076.25;;;19.01;100.00
74834;BME280;63361;52.384;20.930;2023-07-29T05:46:08;100076.34;;;17.86;100.00
74834;BME280;63361;52.384;20.930;2023-07-29T05:48:34;100074.06;;;18.58;100.00
74834;BME280;63361;52.384;20.930;2023-07-29T05:50:59;100078.19;;;19.01;100.00
74834;BME280;63361;52.384;20.930;2023-07-29T05:53:24;100080.84;;;19.49;100.00
74834;BME280;63361;52.384;20.930;2023-07-29T05:55:50;100087.09;;;20.06;100.00
74834;BME280;63361;52.384;20.930;2023-07-29T05:58:15;100091.38;;;20.82;100.00
74834;BME280;63361;52.384;20.930;2023-07-29T06:00:40;100085.13;;;22.32;100.00
74834;BME280;63361;52.384;20.930;2023-07-29T06:03:06;100104.44;;;26.38;100.00
74834;BME280;63361;52.384;20.930;2023-07-29T06:05:31;100113.31;;;29.43;64.11
74834;BME280;63361;52.384;20.930;2023-07-29T06:07:57;100103.94;;;30.48;54.56
74834;BME280;63361;52.384;20.930;2023-07-29T06:10:22;100111.41;;;30.00;50.49
74834;BME280;63361;52.384;20.930;2023-07-29T06:12:47;100104.09;;;28.08;54.77
74834;BME280;63361;52.384;20.930;2023-07-29T06:15:13;100080.69;;;27.04;59.84
74834;BME280;63361;52.384;20.930;2023-07-29T06:17:39;100089.78;;;27.19;56.79
74834;BME280;63361;52.384;20.930;2023-07-29T06:20:06;100121.34;;;30.01;51.99
74834;BME280;63361;52.384;20.930;2023-07-29T06:22:31;100099.69;;;27.06;56.39
74834;BME280;63361;52.384;20.930;2023-07-29T06:24:57;100105.38;;;24.08;67.39
74834;BME280;63361;52.384;20.930;2023-07-29T06:27:22;100116.16;;;25.85;65.61
74834;BME280;63361;52.384;20.930;2023-07-29T06:29:47;100105.63;;;27.08;58.81
74834;BME280;63361;52.384;20.930;2023-07-29T06:32:12;100118.94;;;25.92;61.23
74834;BME280;63361;52.384;20.930;2023-07-29T06:34:38;100122.91;;;28.93;51.20
74834;BME280;63361;52.384;20.930;2023-07-29T06:37:03;100132.53;;;30.55;48.70
74834;BME280;63361;52.384;20.930;2023-07-29T06:39:28;100128.97;;;31.44;44.27
74834;BME280;63361;52.384;20.930;2023-07-29T06:41:54;100124.03;;;30.08;46.65
74834;BME280;63361;52.384;20.930;2023-07-29T06:44:19;100134.31;;;30.89;44.79
74834;BME280;63361;52.384;20.930;2023-07-29T06:46:44;100120.97;;;29.65;48.72
74834;BME280;63361;52.384;20.930;2023-07-29T06:49:10;100140.84;;;31.68;44.33
74834;BME280;63361;52.384;20.930;2023-07-29T06:51:35;100135.25;;;33.22;40.33
74834;BME280;63361;52.384;20.930;2023-07-29T06:54:03;100117.59;;;33.95;37.45
74834;BME280;63361;52.384;20.930;2023-07-29T06:56:29;100117.66;;;32.27;41.58
74834;BME280;63361;52.384;20.930;2023-07-29T06:58:54;100128.16;;;35.27;36.04
74834;BME280;63361;52.384;20.930;2023-07-29T07:01:19;100122.66;;;35.67;35.47
74834;BME280;63361;52.384;20.930;2023-07-29T07:03:45;100128.47;;;35.51;34.54
74834;BME280;63361;52.384;20.930;2023-07-29T07:06:10;100135.47;;;35.68;33.85
74834;BME280;63361;52.384;20.930;2023-07-29T07:08:35;100119.25;;;33.38;37.29
74834;BME280;63361;52.384;20.930;2023-07-29T07:11:01;100128.47;;;35.51;33.97
74834;BME280;63361;52.384;20.930;2023-07-29T07:13:26;100116.44;;;35.50;33.81
74834;BME280;63361;52.384;20.930;2023-07-29T07:15:54;100109.34;;;36.51;31.60
74834;BME280;63361;52.384;20.930;2023-07-29T07:18:20;100121.66;;;37.12;30.34
74834;BME280;63361;52.384;20.930;2023-07-29T07:20:48;100117.16;;;37.93;28.87
74834;BME280;63361;52.384;20.930;2023-07-29T07:23:14;100107.22;;;37.65;29.50
74834;BME280;63361;52.384;20.930;2023-07-29T07:25:40;100098.50;;;38.38;27.93
74834;BME280;63361;52.384;20.930;2023-07-29T07:28:07;100101.59;;;37.56;28.60
74834;BME280;63361;52.384;20.930;2023-07-29T07:30:32;100101.03;;;34.39;33.15
74834;BME280;63361;52.384;20.930;2023-07-29T07:32:57;100098.78;;;36.24;30.26
74834;BME280;63361;52.384;20.930;2023-07-29T07:35:23;100103.63;;;37.74;27.56
74834;BME280;63361;52.384;20.930;2023-07-29T07:37:48;100098.59;;;35.66;30.02
74834;BME280;63361;52.384;20.930;2023-07-29T07:40:13;100098.47;;;36.90;28.12
74834;BME280;63361;52.384;20.930;2023-07-29T07:42:39;100100.84;;;37.19;28.56
74834;BME280;63361;52.384;20.930;2023-07-29T07:45:04;100092.41;;;35.71;30.67
74834;BME280;63361;52.384;20.930;2023-07-29T07:47:30;100090.50;;;34.17;33.05
74834;BME280;63361;52.384;20.930;2023-07-29T07:49:55;100089.72;;;33.92;34.72
74834;BME280;63361;52.384;20.930;2023-07-29T07:52:20;100091.38;;;35.56;32.08
74834;BME280;63361;52.384;20.930;2023-07-29T07:54:51;100094.50;;;38.54;28.22
74834;BME280;63361;52.384;20.930;2023-07-29T07:57:17;100093.19;;;37.10;29.34
74834;BME280;63361;52.384;20.930;2023-07-29T07:59:42;100092.47;;;36.70;30.38
74834;BME280;63361;52.384;20.930;2023-07-29T08:02:08;100088.41;;;32.80;36.78
74834;BME280;63361;52.384;20.930;2023-07-29T08:04:33;100084.84;;;32.47;38.49
74834;BME280;63361;52.384;20.930;2023-07-29T08:06:58;100089.75;;;32.07;38.34
74834;BME280;63361;52.384;20.930;2023-07-29T08:09:24;100078.44;;;31.19;40.40
74834;BME280;63361;52.384;20.930;2023-07-29T08:11:49;100085.19;;;35.05;34.63
74834;BME280;63361;52.384;20.930;2023-07-29T08:14:14;100084.59;;;37.23;29.56
74834;BME280;63361;52.384;20.930;2023-07-29T08:16:39;100079.91;;;37.89;28.83
74834;BME280;63361;52.384;20.930;2023-07-29T08:19:05;100083.13;;;38.39;28.19
74834;BME280;63361;52.384;20.930;2023-07-29T08:21:30;100089.03;;;35.33;31.40
74834;BME280;63361;52.384;20.930;2023-07-29T08:23:55;100071.28;;;29.98;41.63
74834;BME280;63361;52.384;20.930;2023-07-29T08:26:21;100073.47;;;32.55;37.40
74834;BME280;63361;52.384;20.930;2023-07-29T08:28:46;100078.84;;;34.19;35.50
74834;BME280;63361;52.384;20.930;2023-07-29T08:31:11;100077.13;;;36.52;30.65
74834;BME280;63361;52.384;20.930;2023-07-29T08:33:37;100082.78;;;36.61;29.07
74834;BME280;63361;52.384;20.930;2023-07-29T08:36:03;100086.22;;;36.56;30.17
74834;BME280;63361;52.384;20.930;2023-07-29T08:38:28;100074.50;;;38.19;27.55
74834;BME280;63361;52.384;20.930;2023-07-29T08:43:32;100075.91;;;39.48;25.45
74834;BME280;63361;52.384;20.930;2023-07-29T08:45:59;100077.69;;;36.78;28.10
74834;BME280;63361;52.384;20.930;2023-07-29T08:48:40;100072.91;;;34.42;31.96
74834;BME280;63361;52.384;20.930;2023-07-29T08:51:08;100067.03;;;36.82;28.45
74834;BME280;63361;52.384;20.930;2023-07-29T08:53:34;100072.72;;;38.30;26.56
74834;BME280;63361;52.384;20.930;2023-07-29T08:56:00;100051.56;;;33.56;30.08
74834;BME280;63361;52.384;20.930;2023-07-29T08:58:26;100077.28;;;36.00;28.76
74834;BME280;63361;52.384;20.930;2023-07-29T09:00:52;100065.31;;;33.63;32.99
74834;BME280;63361;52.384;20.930;2023-07-29T09:03:17;100067.97;;;34.94;30.98
74834;BME280;63361;52.384;20.930;2023-07-29T09:05:42;100056.78;;;34.21;32.54
74834;BME280;63361;52.384;20.930;2023-07-29T09:08:08;100053.13;;;33.70;34.12
74834;BME280;63361;52.384;20.930;2023-07-29T09:10:35;100056.22;;;33.88;33.19
74834;BME280;63361;52.384;20.930;2023-07-29T09:13:02;100059.03;;;34.73;31.30
74834;BME280;63361;52.384;20.930;2023-07-29T09:15:32;100062.44;;;35.99;30.12
74834;BME280;63361;52.384;20.930;2023-07-29T09:17:58;100059.69;;;35.77;29.07
74834;BME280;63361;52.384;20.930;2023-07-29T09:20:27;100058.78;;;35.58;30.49
74834;BME280;63361;52.384;20.930;2023-07-29T09:22:54;100065.81;;;37.89;27.18
74834;BME280;63361;52.384;20.930;2023-07-29T09:25:28;100067.66;;;36.86;27.96
74834;BME280;63361;52.384;20.930;2023-07-29T09:28:00;100061.72;;;37.99;26.11
74834;BME280;63361;52.384;20.930;2023-07-29T09:30:26;100050.34;;;35.28;30.49
74834;BME280;63361;52.384;20.930;2023-07-29T09:32:56;100057.75;;;36.36;28.24
74834;BME280;63361;52.384;20.930;2023-07-29T09:35:21;100061.72;;;37.90;27.00
74834;BME280;63361;52.384;20.930;2023-07-29T09:37:47;100064.13;;;38.73;25.90
74834;BME280;63361;52.384;20.930;2023-07-29T09:40:17;100062.47;;;39.87;24.75
74834;BME280;63361;52.384;20.930;2023-07-29T09:42:50;100057.09;;;38.92;25.31
74834;BME280;63361;52.384;20.930;2023-07-29T09:45:22;100057.63;;;38.00;26.00
74834;BME280;63361;52.384;20.930;2023-07-29T09:47:48;100051.44;;;37.87;26.47
74834;BME280;63361;52.384;20.930;2023-07-29T09:50:13;100038.88;;;37.28;26.24
74834;BME280;63361;52.384;20.930;2023-07-29T09:52:39;100043.44;;;34.72;28.50
74834;BME280;63361;52.384;20.930;2023-07-29T09:55:04;100042.56;;;34.63;29.59
74834;BME280;63361;52.384;20.930;2023-07-29T09:57:31;100025.91;;;36.08;27.50
74834;BME280;63361;52.384;20.930;2023-07-29T09:59:57;100036.00;;;37.64;26.00
74834;BME280;63361;52.384;20.930;2023-07-29T10:02:23;100036.19;;;38.51;24.50
74834;BME280;63361;52.384;20.930;2023-07-29T10:04:51;100034.66;;;38.26;25.87
74834;BME280;63361;52.384;20.930;2023-07-29T10:07:17;100040.88;;;39.16;25.39
74834;BME280;63361;52.384;20.930;2023-07-29T10:09:44;100042.47;;;38.79;24.78
74834;BME280;63361;52.384;20.930;2023-07-29T10:12:11;100038.28;;;36.78;26.84
74834;BME280;63361;52.384;20.930;2023-07-29T10:14:38;100038.84;;;35.00;29.95
74834;BME280;63361;52.384;20.930;2023-07-29T10:17:04;100033.34;;;35.62;29.27
74834;BME280;63361;52.384;20.930;2023-07-29T10:19:30;100029.88;;;36.20;27.04
74834;BME280;63361;52.384;20.930;2023-07-29T10:21:59;100036.25;;;37.24;25.80
74834;BME280;63361;52.384;20.930;2023-07-29T10:24:26;100037.16;;;35.03;28.34
74834;BME280;63361;52.384;20.930;2023-07-29T10:26:57;100026.47;;;33.65;31.04
74834;BME280;63361;52.384;20.930;2023-07-29T10:29:23;100030.88;;;34.30;30.17
74834;BME280;63361;52.384;20.930;2023-07-29T10:31:52;100006.50;;;35.92;27.79
74834;BME280;63361;52.384;20.930;2023-07-29T10:34:19;100016.47;;;36.24;27.49
74834;BME280;63361;52.384;20.930;2023-07-29T10:36:46;100025.63;;;36.92;26.60
74834;BME280;63361;52.384;20.930;2023-07-29T10:39:13;100007.13;;;36.36;26.59
74834;BME280;63361;52.384;20.930;2023-07-29T10:41:59;99999.91;;;36.26;26.93
74834;BME280;63361;52.384;20.930;2023-07-29T10:47:17;99993.53;;;36.98;25.44
74834;BME280;63361;52.384;20.930;2023-07-29T10:49:44;99998.66;;;35.25;28.71
74834;BME280;63361;52.384;20.930;2023-07-29T10:52:17;99997.81;;;33.19;31.15
74834;BME280;63361;52.384;20.930;2023-07-29T10:54:52;100006.31;;;35.03;28.64
74834;BME280;63361;52.384;20.930;2023-07-29T10:57:38;100010.72;;;35.87;27.87
74834;BME280;63361;52.384;20.930;2023-07-29T11:00:05;100005.72;;;36.41;26.68
74834;BME280;63361;52.384;20.930;2023-07-29T11:02:35;100002.75;;;36.44;26.75
74834;BME280;63361;52.384;20.930;2023-07-29T11:05:05;99998.88;;;36.51;26.48
74834;BME280;63361;52.384;20.930;2023-07-29T11:07:46;100003.72;;;34.39;29.23
74834;BME280;63361;52.384;20.930;2023-07-29T11:10:12;100002.09;;;33.78;30.95
74834;BME280;63361;52.384;20.930;2023-07-29T11:12:49;99997.47;;;34.35;29.86
74834;BME280;63361;52.384;20.930;2023-07-29T11:15:27;99986.22;;;34.70;29.66
74834;BME280;63361;52.384;20.930;2023-07-29T11:17:56;99988.06;;;35.51;30.07
74834;BME280;63361;52.384;20.930;2023-07-29T11:20:24;99986.31;;;36.24;28.13
74834;BME280;63361;52.384;20.930;2023-07-29T11:22:50;99962.75;;;36.31;27.15
74834;BME280;63361;52.384;20.930;2023-07-29T11:25:17;99976.53;;;36.93;26.79
74834;BME280;63361;52.384;20.930;2023-07-29T11:27:43;99970.34;;;37.31;26.77
74834;BME280;63361;52.384;20.930;2023-07-29T11:30:10;99970.84;;;37.29;26.50
74834;BME280;63361;52.384;20.930;2023-07-29T11:32:38;99969.25;;;36.01;28.30
74834;BME280;63361;52.384;20.930;2023-07-29T11:35:04;99957.72;;;34.49;30.26
74834;BME280;63361;52.384;20.930;2023-07-29T11:37:29;99955.88;;;34.34;30.28
74834;BME280;63361;52.384;20.930;2023-07-29T11:39:55;99951.22;;;35.80;28.94
74834;BME280;63361;52.384;20.930;2023-07-29T11:42:20;99947.00;;;36.34;26.98
74834;BME280;63361;52.384;20.930;2023-07-29T11:44:46;99946.00;;;35.69;27.46
74834;BME280;63361;52.384;20.930;2023-07-29T11:47:12;99942.19;;;34.57;29.75
74834;BME280;63361;52.384;20.930;2023-07-29T11:49:39;99943.69;;;35.15;29.11
74834;BME280;63361;52.384;20.930;2023-07-29T11:52:09;99934.00;;;35.07;29.50
74834;BME280;63361;52.384;20.930;2023-07-29T11:54:36;99931.31;;;34.60;30.28
74834;BME280;63361;52.384;20.930;2023-07-29T11:57:06;99927.25;;;35.26;29.04
74834;BME280;63361;52.384;20.930;2023-07-29T11:59:34;99935.19;;;35.99;27.97
74834;BME280;63361;52.384;20.930;2023-07-29T12:02:01;99932.34;;;35.18;29.40
74834;BME280;63361;52.384;20.930;2023-07-29T12:04:27;99928.72;;;35.09;29.39
74834;BME280;63361;52.384;20.930;2023-07-29T12:06:52;99921.97;;;35.59;27.96
74834;BME280;63361;52.384;20.930;2023-07-29T12:09:18;99914.53;;;34.12;30.70
74834;BME280;63361;52.384;20.930;2023-07-29T12:11:44;99916.16;;;33.37;31.66
74834;BME280;63361;52.384;20.930;2023-07-29T12:14:09;99920.91;;;32.99;32.06
74834;BME280;63361;52.384;20.930;2023-07-29T12:16:44;99924.06;;;34.49;29.92
74834;BME280;63361;52.384;20.930;2023-07-29T12:19:13;99908.66;;;33.72;30.89
74834;BME280;63361;52.384;20.930;2023-07-29T12:21:40;99913.25;;;32.12;33.79
74834;BME280;63361;52.384;20.930;2023-07-29T12:24:06;99912.97;;;33.10;33.00
74834;BME280;63361;52.384;20.930;2023-07-29T12:26:32;99908.44;;;34.27;29.70
74834;BME280;63361;52.384;20.930;2023-07-29T12:28:57;99906.13;;;34.69;29.76
74834;BME280;63361;52.384;20.930;2023-07-29T12:31:31;99897.25;;;34.70;29.68
74834;BME280;63361;52.384;20.930;2023-07-29T12:33:57;99892.19;;;33.62;30.28
74834;BME280;63361;52.384;20.930;2023-07-29T12:36:27;99899.19;;;32.90;32.19
74834;BME280;63361;52.384;20.930;2023-07-29T12:38:52;99886.31;;;32.51;32.73
74834;BME280;63361;52.384;20.930;2023-07-29T12:41:17;99893.03;;;31.60;34.50
74834;BME280;63361;52.384;20.930;2023-07-29T12:43:43;99888.00;;;31.35;35.21
74834;BME280;63361;52.384;20.930;2023-07-29T12:46:08;99889.25;;;32.15;34.49
74834;BME280;63361;52.384;20.930;2023-07-29T12:48:34;99900.47;;;33.14;32.22
74834;BME280;63361;52.384;20.930;2023-07-29T12:50:59;99885.72;;;33.52;32.13